Time;durP1;ratioP1;P1;durP2;ratioP2;P2;SDS_P1;SDS_P2;PMS_P1;PMS_P2;Temp;Humidity;BMP_temperature;BMP_pressure;BME280_temperature;BME280_humidity;BME280_pressure;Samples;Min_cycle;Max_cycle;Signal;HPM_P1;HPM_P2
2022/08/11 00:01:13;;;;;;;;;;;;;;;18.67;67.52;99700.66;1726875;82;20095;-75
2022/08/11 00:03:44;;;;;;;;;;;;;;;18.60;67.74;99699.88;1734804;81;20434;-76
2022/08/11 00:06:12;;;;;;;;;;;;;;;18.54;67.97;99700.77;1719077;82;20101;-76
2022/08/11 00:08:39;;;;;;;;;;;;;;;18.48;68.20;99697.86;1734564;81;20111;-76
2022/08/11 00:11:07;;;;;;;;;;;;;;;18.44;68.32;99695.28;1747840;81;21246;-75
2022/08/11 00:13:36;;;;;;;;;;;;;;;18.40;68.48;99694.59;1736415;82;20105;-75
2022/08/11 00:16:03;;;;;;;;;;;;;;;18.36;68.62;99696.87;1741767;82;20115;-75
2022/08/11 00:18:39;;;;;;;;;;;;;;;18.34;68.70;99692.74;1747664;82;20095;-76
2022/08/11 00:21:05;;;;;;;;;;;;;;;18.32;68.78;99696.17;1746364;82;20118;-74
2022/08/11 00:23:31;;;;;;;;;;;;;;;18.30;68.90;99694.23;1723651;82;21130;-73
2022/08/11 00:25:57;;;;;;;;;;;;;;;18.28;69.05;99688.20;1739270;82;20167;-73
2022/08/11 00:28:30;;;;;;;;;;;;;;;18.29;69.11;99692.05;1747724;82;20119;-73
2022/08/11 00:30:58;;;;;;;;;;;;;;;18.30;69.02;99689.64;1747101;82;20126;-73
2022/08/11 00:33:40;;;;;;;;;;;;;;;18.28;69.01;99678.27;1746267;82;20429;-74
2022/08/11 00:36:07;;;;;;;;;;;;;;;18.25;69.03;99679.23;1747700;82;21154;-73
2022/08/11 00:38:38;;;;;;;;;;;;;;;18.18;69.15;99681.94;1747685;81;20136;-73
2022/08/11 00:41:32;;;;;;;;;;;;;;;18.15;69.24;99676.15;1746330;82;20091;-73
2022/08/11 00:44:36;;;;;;;;;;;;;;;18.11;69.34;99677.63;1744750;82;20126;-72
2022/08/11 00:47:11;;;;;;;;;;;;;;;18.10;69.44;99675.97;1740652;82;20117;-74
2022/08/11 00:50:07;;;;;;;;;;;;;;;18.05;69.59;99673.92;1746660;81;21251;-74
2022/08/11 00:53:07;;;;;;;;;;;;;;;18.06;69.66;99672.06;1745945;82;20087;-73
2022/08/11 00:56:01;;;;;;;;;;;;;;;18.03;69.64;99680.56;1747750;81;20086;-74
2022/08/11 00:58:38;;;;;;;;;;;;;;;18.02;69.73;99677.55;1747729;81;20168;-75
2022/08/11 01:01:17;;;;;;;;;;;;;;;18.05;69.81;99676.62;1737106;82;20409;-76
2022/08/11 01:04:05;;;;;;;;;;;;;;;18.07;69.73;99671.03;1747913;80;21859;-75
2022/08/11 01:06:50;;;;;;;;;;;;;;;18.09;69.70;99668.44;1662407;85;20168;-75
2022/08/11 01:09:36;;;;;;;;;;;;;;;18.09;69.64;99669.78;1662371;85;20251;-75
2022/08/11 01:12:41;;;;;;;;;;;;;;;18.02;69.57;99666.27;1702755;82;20124;-75
2022/08/11 01:15:28;;;;;;;;;;;;;;;17.96;69.74;99663.11;1724180;81;20130;-75
2022/08/11 01:18:13;;;;;;;;;;;;;;;17.93;69.85;99660.84;1719514;81;21239;-75
2022/08/11 01:20:55;;;;;;;;;;;;;;;17.88;69.95;99654.72;1747497;80;20424;-74
2022/08/11 01:23:28;;;;;;;;;;;;;;;17.83;70.07;99659.12;1714984;81;20096;-76
2022/08/11 01:26:17;;;;;;;;;;;;;;;17.79;70.28;99664.09;1735114;82;20544;-75
2022/08/11 01:28:58;;;;;;;;;;;;;;;17.79;70.43;99664.09;1727423;81;20181;-76
2022/08/11 01:31:28;;;;;;;;;;;;;;;17.80;70.50;99659.03;1724361;81;21175;-74
2022/08/11 01:34:21;;;;;;;;;;;;;;;17.79;70.48;99661.91;1734352;81;20084;-75
2022/08/11 01:37:03;;;;;;;;;;;;;;;17.78;70.44;99661.62;1735064;82;20211;-71
2022/08/11 01:40:02;;;;;;;;;;;;;;;17.75;70.55;99658.01;1731546;82;20119;-76
2022/08/11 01:45:35;;;;;;;;;;;;;;;17.72;70.34;99655.73;1735082;82;21064;-74
2022/08/11 01:48:07;;;;;;;;;;;;;;;17.64;70.45;99657.31;1744755;82;20433;-76
2022/08/11 01:50:38;;;;;;;;;;;;;;;17.62;70.68;99657.53;1729823;82;20219;-75
2022/08/11 01:53:37;;;;;;;;;;;;;;;17.63;70.64;99658.33;1722102;82;20170;-74
2022/08/11 01:56:38;;;;;;;;;;;;;;;17.63;70.67;99654.30;1734353;81;20100;-76
2022/08/11 01:59:27;;;;;;;;;;;;;;;17.63;70.82;99651.09;1733805;81;21090;-76
2022/08/11 02:02:08;;;;;;;;;;;;;;;17.63;70.90;99644.88;1735103;81;20141;-75
2022/08/11 02:04:42;;;;;;;;;;;;;;;17.62;71.03;99644.08;1734999;81;20119;-75
2022/08/11 02:07:18;;;;;;;;;;;;;;;17.64;71.02;99649.23;1734965;82;20123;-75
2022/08/11 02:13:17;;;;;;;;;;;;;;;17.66;71.08;99656.06;1736116;81;21133;-75
2022/08/11 02:15:53;;;;;;;;;;;;;;;17.66;71.05;99645.81;1722378;80;20495;-74
2022/08/11 02:18:22;;;;;;;;;;;;;;;17.65;71.09;99651.70;1712661;83;20103;-74
2022/08/11 02:23:50;;;;;;;;;;;;;;;17.67;71.17;99650.16;1698279;83;20108;-73
2022/08/11 02:26:38;;;;;;;;;;;;;;;17.68;71.21;99649.11;1714200;83;22246;-74
2022/08/11 02:29:26;;;;;;;;;;;;;;;17.69;71.15;99647.56;1687693;82;20126;-73
2022/08/11 02:35:18;;;;;;;;;;;;;;;17.70;71.11;99649.75;1714490;82;20190;-73
2022/08/11 02:37:53;;;;;;;;;;;;;;;17.70;71.14;99657.27;1714438;83;20096;-74
2022/08/11 02:40:32;;;;;;;;;;;;;;;17.70;71.17;99651.89;1712844;82;21102;-74
2022/08/11 02:43:09;;;;;;;;;;;;;;;17.73;71.11;99651.47;1701848;81;20483;-74
2022/08/11 02:45:48;;;;;;;;;;;;;;;17.74;71.06;99648.27;1695754;82;20107;-75
2022/08/11 02:51:37;;;;;;;;;;;;;;;17.69;71.10;99650.77;1699450;83;20111;-73
2022/08/11 02:54:30;;;;;;;;;;;;;;;17.66;71.23;99653.37;1714455;83;21139;-73
2022/08/11 02:57:00;;;;;;;;;;;;;;;17.62;71.33;99658.87;1714210;82;20126;-74
2022/08/11 02:59:50;;;;;;;;;;;;;;;17.57;71.31;99659.20;1708716;83;20170;-75
2022/08/11 03:02:36;;;;;;;;;;;;;;;17.51;71.48;99662.69;1714351;83;20095;-74
2022/08/11 03:05:13;;;;;;;;;;;;;;;17.50;71.62;99658.33;1714559;83;20429;-75
2022/08/11 03:08:00;;;;;;;;;;;;;;;17.48;71.69;99659.91;1714491;82;21816;-75
2022/08/11 03:16:43;;;;;;;;;;;;;;;17.50;71.75;99667.75;1708503;83;20158;-74
2022/08/11 03:19:25;;;;;;;;;;;;;;;17.56;72.17;99677.70;1710868;82;20083;-75
2022/08/11 03:21:55;;;;;;;;;;;;;;;17.64;72.12;99670.76;1729741;81;21139;-74
2022/08/11 03:24:34;;;;;;;;;;;;;;;17.76;72.01;99669.89;1731268;81;20125;-74
2022/08/11 03:27:04;;;;;;;;;;;;;;;17.85;71.78;99667.28;1745239;82;20115;-74
2022/08/11 03:30:07;;;;;;;;;;;;;;;18.00;71.53;99664.32;1738381;82;20098;-74
2022/08/11 03:35:46;;;;;;;;;;;;;;;18.25;70.65;99667.92;1749181;81;21159;-74
2022/08/11 03:38:14;;;;;;;;;;;;;;;18.24;70.15;99668.98;1747304;82;20107;-74
2022/08/11 03:44:00;;;;;;;;;;;;;;;18.12;70.38;99672.02;1742239;81;20083;-73
2022/08/11 03:46:44;;;;;;;;;;;;;;;18.09;70.25;99675.17;1745647;82;20193;-72
2022/08/11 03:49:34;;;;;;;;;;;;;;;18.05;70.44;99676.62;1743535;82;21244;-74
2022/08/11 03:52:35;;;;;;;;;;;;;;;17.97;70.48;99680.89;1747740;81;20087;-74
2022/08/11 03:55:34;;;;;;;;;;;;;;;17.93;70.69;99678.33;1735581;81;20087;-75
2022/08/11 03:58:28;;;;;;;;;;;;;;;17.85;71.05;99676.70;1729649;82;20123;-76
2022/08/11 04:00:58;;;;;;;;;;;;;;;17.88;71.24;99674.91;1728629;82;20096;-75
2022/08/11 04:03:40;;;;;;;;;;;;;;;17.85;71.19;99679.91;1747293;82;21218;-76
2022/08/11 04:06:30;;;;;;;;;;;;;;;17.81;71.44;99679.50;1747923;81;20123;-75
2022/08/11 04:09:28;;;;;;;;;;;;;;;17.87;71.59;99679.17;1747847;82;20178;-72
2022/08/11 04:12:13;;;;;;;;;;;;;;;17.96;71.47;99674.39;1638432;84;20163;-73
2022/08/11 04:18:07;;;;;;;;;;;;;;;18.05;71.15;99673.09;1747687;82;21310;-73
2022/08/11 04:20:57;;;;;;;;;;;;;;;18.07;71.32;99674.53;1731759;82;20125;-73
2022/08/11 04:23:44;;;;;;;;;;;;;;;18.12;71.16;99674.71;1723707;82;20083;-73
2022/08/11 04:26:41;;;;;;;;;;;;;;;18.16;71.13;99677.30;1729106;82;20096;-74
2022/08/11 04:29:34;;;;;;;;;;;;;;;18.19;71.27;99679.57;1745054;81;20083;-73
2022/08/11 04:32:16;;;;;;;;;;;;;;;18.29;71.12;99677.75;1746733;81;21557;-74
2022/08/11 04:34:46;;;;;;;;;;;;;;;18.40;71.16;99674.39;1747610;82;20082;-76
2022/08/11 04:37:33;;;;;;;;;;;;;;;18.57;70.93;99673.37;1729122;81;20103;-73
2022/08/11 04:40:06;;;;;;;;;;;;;;;18.82;70.67;99670.20;1729367;82;20110;-75
2022/08/11 04:45:55;;;;;;;;;;;;;;;20.09;68.84;99665.84;1742519;82;21151;-75
2022/08/11 05:07:41;;;;;;;;;;;;;;;25.75;50.78;99655.05;1747761;82;20150;-75
2022/08/11 05:10:29;;;;;;;;;;;;;;;26.06;48.79;99654.64;1747693;82;20087;-75
2022/08/11 05:27:09;;;;;;;;;;;;;;;25.78;48.64;99658.32;1747676;81;20155;-74
2022/08/11 05:35:15;;;;;;;;;;;;;;;27.45;44.85;99646.69;1752122;81;20071;-75
2022/08/11 05:57:09;;;;;;;;;;;;;;;31.81;36.05;99633.05;1734106;81;22346;-73
2022/08/11 05:59:36;;;;;;;;;;;;;;;31.97;35.38;99641.21;1723766;82;20416;-75
2022/08/11 06:02:04;;;;;;;;;;;;;;;32.32;34.84;99636.37;1748813;81;20134;-74
2022/08/11 06:04:30;;;;;;;;;;;;;;;32.72;34.15;99638.20;1746979;82;20118;-75
2022/08/11 06:07:04;;;;;;;;;;;;;;;33.25;33.82;99639.67;1746796;81;20162;-74
2022/08/11 06:09:47;;;;;;;;;;;;;;;33.80;32.61;99635.98;1747249;82;21098;-76
2022/08/11 06:12:18;;;;;;;;;;;;;;;34.23;31.77;99629.80;1737160;82;20148;-75
2022/08/11 06:14:46;;;;;;;;;;;;;;;34.72;31.18;99628.00;1745204;81;20197;-75
2022/08/11 06:17:13;;;;;;;;;;;;;;;35.15;30.25;99627.95;1746790;82;20151;-76
2022/08/11 06:19:40;;;;;;;;;;;;;;;35.40;29.50;99627.09;1745536;82;20156;-75
2022/08/11 06:22:09;;;;;;;;;;;;;;;35.51;29.44;99624.78;1718638;82;21806;-76
2022/08/11 06:24:39;;;;;;;;;;;;;;;35.73;28.91;99629.51;1731241;82;20083;-76
2022/08/11 06:27:05;;;;;;;;;;;;;;;35.94;28.47;99624.84;1747731;82;20079;-77
2022/08/11 06:29:33;;;;;;;;;;;;;;;36.21;28.10;99624.97;1738139;81;20121;-76
2022/08/11 06:32:00;;;;;;;;;;;;;;;36.32;27.31;99630.92;1726806;82;20165;-73
2022/08/11 06:34:58;;;;;;;;;;;;;;;36.25;27.68;99628.67;1734213;81;21147;-70
2022/08/11 06:37:45;;;;;;;;;;;;;;;36.35;27.21;99626.06;1721330;81;20114;-76
2022/08/11 06:40:21;;;;;;;;;;;;;;;36.49;27.34;99616.39;1702451;82;20139;-76
2022/08/11 06:42:53;;;;;;;;;;;;;;;36.91;26.94;99619.94;1747602;82;20424;-76
2022/08/11 06:45:41;;;;;;;;;;;;;;;37.24;26.44;99615.77;1747686;81;20147;-76
2022/08/11 06:48:11;;;;;;;;;;;;;;;37.44;26.23;99621.06;1747407;82;21162;-76
2022/08/11 06:53:23;;;;;;;;;;;;;;;37.45;25.22;99612.95;1747718;82;20095;-75
2022/08/11 07:01:45;;;;;;;;;;;;;;;37.62;25.70;99616.92;1728265;82;21826;-76
2022/08/11 07:04:08;;;;;;;;;;;;;;;38.20;25.04;99610.89;1748216;80;20083;-76
2022/08/11 07:06:42;;;;;;;;;;;;;;;38.63;24.55;99606.06;1747639;82;20123;-76
2022/08/11 07:28:58;;;;;;;;;;;;;;;40.79;21.19;99595.59;1733549;82;21200;-76
2022/08/11 07:31:35;;;;;;;;;;;;;;;40.61;21.51;99595.83;1753464;80;20412;-77
2022/08/11 07:34:24;;;;;;;;;;;;;;;40.88;21.05;99600.38;1734768;80;20095;-76
2022/08/11 07:36:57;;;;;;;;;;;;;;;40.85;20.54;99600.30;1755133;80;20087;-77
2022/08/11 07:39:32;;;;;;;;;;;;;;;40.27;21.11;99599.44;1756481;80;20087;-77
2022/08/11 07:41:59;;;;;;;;;;;;;;;40.38;21.31;99599.09;1756085;82;21104;-76
2022/08/11 07:44:28;;;;;;;;;;;;;;;40.39;20.79;99597.32;1754640;82;20107;-76
2022/08/11 07:52:32;;;;;;;;;;;;;;;40.56;21.19;99597.52;1754707;80;20075;-76
2022/08/11 07:55:13;;;;;;;;;;;;;;;41.05;20.60;99598.53;1754797;82;21280;-76
2022/08/11 08:19:43;;;;;;;;;;;;;;;41.98;19.21;99605.94;1754752;80;20083;-75
2022/08/11 08:22:14;;;;;;;;;;;;;;;42.00;19.23;99600.00;1754819;80;21145;-76
2022/08/11 08:24:41;;;;;;;;;;;;;;;41.99;18.90;99605.36;1754571;82;20102;-76
2022/08/11 08:27:11;;;;;;;;;;;;;;;41.12;19.06;99604.81;1754611;80;20084;-76
2022/08/11 08:32:22;;;;;;;;;;;;;;;40.93;19.70;99595.92;1754768;81;20140;-76
2022/08/11 08:34:51;;;;;;;;;;;;;;;40.80;19.63;99593.05;1754614;80;21523;-76
2022/08/11 08:37:19;;;;;;;;;;;;;;;39.59;20.58;99608.12;1754477;80;20095;-76
2022/08/11 08:39:46;;;;;;;;;;;;;;;38.17;21.74;99614.96;1754658;82;20423;-77
2022/08/11 08:42:19;;;;;;;;;;;;;;;37.33;22.83;99611.53;1754565;81;20114;-80
2022/08/11 08:44:46;;;;;;;;;;;;;;;36.87;23.47;99605.69;1754623;82;20111;-76
2022/08/11 08:47:14;;;;;;;;;;;;;;;36.36;23.61;99604.98;1754422;81;21065;-77
2022/08/11 08:49:47;;;;;;;;;;;;;;;35.02;25.00;99607.63;1754712;82;20416;-77
2022/08/11 08:52:12;;;;;;;;;;;;;;;34.17;26.32;99613.14;1754806;80;20179;-78
2022/08/11 08:54:38;;;;;;;;;;;;;;;34.32;26.46;99602.44;1754699;82;20114;-76
2022/08/11 08:57:05;;;;;;;;;;;;;;;33.67;26.76;99607.95;1754672;80;20098;-77
2022/08/11 08:59:35;;;;;;;;;;;;;;;32.96;27.71;99605.66;1754683;82;21564;-77
2022/08/11 09:02:02;;;;;;;;;;;;;;;32.63;28.37;99609.80;1754667;80;20125;-76
2022/08/11 09:04:29;;;;;;;;;;;;;;;32.69;28.24;99607.18;1754817;80;20158;-77
2022/08/11 09:06:57;;;;;;;;;;;;;;;32.46;28.84;99612.36;1754524;80;20115;-76
2022/08/11 09:09:25;;;;;;;;;;;;;;;33.48;27.21;99606.78;1755155;80;20115;-77
2022/08/11 09:11:54;;;;;;;;;;;;;;;34.67;25.82;99595.02;1755078;80;21470;-77
2022/08/11 09:17:17;;;;;;;;;;;;;;;37.13;23.04;99593.78;1740105;80;20083;-76
2022/08/11 09:19:46;;;;;;;;;;;;;;;36.60;23.23;99593.24;1747620;81;37938;-76
2022/08/11 09:27:42;;;;;;;;;;;;;;;33.41;26.09;99590.45;1747712;82;20147;-76
2022/08/11 09:30:09;;;;;;;;;;;;;;;32.58;27.70;99589.83;1747622;82;20428;-76
2022/08/11 09:32:35;;;;;;;;;;;;;;;32.08;28.73;99601.40;1751315;81;20083;-76
2022/08/11 09:35:02;;;;;;;;;;;;;;;31.54;28.95;99593.97;1751300;81;20111;-76
2022/08/11 09:40:28;;;;;;;;;;;;;;;30.56;30.69;99590.96;1747606;81;20209;-76
2022/08/11 09:45:50;;;;;;;;;;;;;;;29.82;31.98;99593.09;1747625;81;20437;-77
2022/08/11 09:48:24;;;;;;;;;;;;;;;29.60;32.53;99603.73;1730630;82;20121;-77
2022/08/11 09:50:54;;;;;;;;;;;;;;;29.49;32.81;99603.61;1745462;81;21767;-77
2022/08/11 09:53:21;;;;;;;;;;;;;;;29.48;33.04;99603.33;1747555;82;20098;-77
2022/08/11 09:55:47;;;;;;;;;;;;;;;29.45;33.05;99598.42;1747599;81;20107;-78
2022/08/11 09:58:15;;;;;;;;;;;;;;;29.36;33.08;99594.95;1747784;81;20118;-77
2022/08/11 10:00:42;;;;;;;;;;;;;;;29.31;33.13;99587.33;1747596;81;20083;-77
2022/08/11 10:03:22;;;;;;;;;;;;;;;29.30;33.38;99585.17;1747774;81;21080;-76
2022/08/11 10:08:41;;;;;;;;;;;;;;;29.62;33.86;99577.66;1747795;82;20095;-78
2022/08/11 10:11:10;;;;;;;;;;;;;;;29.70;33.66;99572.91;1747744;82;20083;-77
2022/08/11 10:15:32;;;;;;;;;;;;;;;29.85;33.46;99582.33;1747552;81;20123;-80
2022/08/11 10:16:07;;;;;;;;;;;;;;;29.84;32.02;99577.16;1752042;80;21153;-78
2022/08/11 10:18:51;;;;;;;;;;;;;;;29.61;32.27;99575.23;1752514;80;20083;-77
2022/08/11 10:21:30;;;;;;;;;;;;;;;29.48;32.58;99566.34;1754604;80;20122;-79
2022/08/11 10:26:53;;;;;;;;;;;;;;;29.45;33.51;99564.17;1748229;80;20102;-76
2022/08/11 10:34:46;;;;;;;;;;;;;;;29.61;33.11;99558.23;1755335;80;20087;-76
2022/08/11 10:37:12;;;;;;;;;;;;;;;29.52;33.31;99555.03;1754596;80;20082;-76
2022/08/11 10:39:39;;;;;;;;;;;;;;;29.48;33.66;99552.09;1754609;80;20138;-76
2022/08/11 10:44:52;;;;;;;;;;;;;;;29.62;33.10;99550.83;1737928;80;20085;-76
2022/08/11 10:47:33;;;;;;;;;;;;;;;29.65;32.40;99552.41;1750515;82;20143;-76
2022/08/11 11:01:04;;;;;;;;;;;;;;;29.60;31.37;99544.25;1754593;82;20086;-77
2022/08/11 11:03:33;;;;;;;;;;;;;;;29.53;31.77;99542.98;1754452;80;20118;-76
2022/08/11 11:06:32;;;;;;;;;;;;;;;29.45;31.96;99535.40;1754536;81;20102;-76
2022/08/11 11:09:02;;;;;;;;;;;;;;;29.37;32.01;99546.45;1754556;80;21775;-76
2022/08/11 11:19:47;;;;;;;;;;;;;;;28.95;32.11;99549.05;1754244;80;20425;-75
2022/08/11 11:25:02;;;;;;;;;;;;;;;29.01;30.77;99543.80;1754400;80;20142;-77
2022/08/11 11:27:32;;;;;;;;;;;;;;;28.95;30.70;99551.79;1754617;81;20130;-76
2022/08/11 11:30:02;;;;;;;;;;;;;;;28.90;31.34;99550.47;1754681;81;20137;-81
2022/08/11 11:32:45;;;;;;;;;;;;;;;28.84;31.60;99548.88;1754753;82;20114;-76
2022/08/11 11:35:33;;;;;;;;;;;;;;;28.80;32.17;99541.81;1754676;80;21546;-76
2022/08/11 11:38:00;;;;;;;;;;;;;;;28.94;32.28;99546.86;1663883;85;20141;-76
2022/08/11 11:40:26;;;;;;;;;;;;;;;29.15;31.79;99539.25;1725321;80;20223;-76
2022/08/11 11:42:53;;;;;;;;;;;;;;;29.35;31.26;99544.02;1756037;80;20386;-76
2022/08/11 11:45:21;;;;;;;;;;;;;;;29.51;30.29;99541.09;1756443;81;20137;-76
2022/08/11 11:47:53;;;;;;;;;;;;;;;29.59;30.39;99541.23;1755262;82;21153;-77
2022/08/11 11:50:33;;;;;;;;;;;;;;;29.83;30.07;99535.76;1754658;80;20110;-77
2022/08/11 11:53:04;;;;;;;;;;;;;;;29.89;30.23;99538.70;1754647;81;20115;-77
2022/08/11 11:55:31;;;;;;;;;;;;;;;29.84;29.96;99540.14;1733665;80;20133;-77
2022/08/11 12:03:29;;;;;;;;;;;;;;;29.45;31.50;99532.66;1754695;81;20121;-76
2022/08/11 12:05:55;;;;;;;;;;;;;;;29.35;31.98;99516.62;1754696;82;20405;-78
2022/08/11 12:08:21;;;;;;;;;;;;;;;29.28;31.82;99515.31;1754682;80;20095;-76
2022/08/11 12:13:39;;;;;;;;;;;;;;;29.18;32.36;99509.38;1754676;80;20094;-76
2022/08/11 12:13:41;;;;;;;;;;;;;;;29.14;32.60;99502.86;1758374;80;21314;-76
2022/08/11 12:16:11;;;;;;;;;;;;;;;29.11;32.77;99504.80;1754631;81;20099;-75
2022/08/11 12:18:37;;;;;;;;;;;;;;;29.08;33.18;99507.30;1754006;80;20091;-76
2022/08/11 12:21:04;;;;;;;;;;;;;;;28.97;33.74;99507.95;1754548;82;20452;-77
2022/08/11 12:29:04;;;;;;;;;;;;;;;29.12;34.35;99506.41;1735064;82;20098;-76
2022/08/11 12:31:31;;;;;;;;;;;;;;;28.98;34.62;99499.19;1754553;80;20083;-76
2022/08/11 12:34:06;;;;;;;;;;;;;;;28.91;35.01;99505.57;1754534;81;20189;-76
2022/08/11 12:36:35;;;;;;;;;;;;;;;28.88;35.15;99502.86;1754285;80;20118;-76
2022/08/11 12:39:04;;;;;;;;;;;;;;;28.75;35.22;99513.12;1754510;80;22272;-76
2022/08/11 12:47:00;;;;;;;;;;;;;;;28.55;35.79;99507.80;1754549;80;20529;-77
2022/08/11 12:52:15;;;;;;;;;;;;;;;28.65;36.18;99504.42;1754648;80;21780;-77
2022/08/11 12:54:59;;;;;;;;;;;;;;;28.66;35.65;99484.72;1753666;82;20468;-76
2022/08/11 13:05:48;;;;;;;;;;;;;;;28.10;36.75;99502.95;1754573;81;21100;-77
2022/08/11 13:08:14;;;;;;;;;;;;;;;28.06;37.22;99503.23;1754573;81;20090;-77
2022/08/11 13:13:27;;;;;;;;;;;;;;;27.67;37.83;99505.61;1754592;82;20483;-75
2022/08/11 13:15:53;;;;;;;;;;;;;;;27.31;38.83;99507.66;1754609;80;20082;-75
2022/08/11 13:18:22;;;;;;;;;;;;;;;27.02;39.27;99501.18;1753071;82;21146;-75
2022/08/11 13:20:50;;;;;;;;;;;;;;;26.78;39.68;99508.59;1748272;81;20206;-77
2022/08/11 13:23:17;;;;;;;;;;;;;;;26.62;39.90;99504.20;1747654;81;20123;-76
2022/08/11 13:25:43;;;;;;;;;;;;;;;26.55;40.70;99513.22;1747688;82;20407;-77
2022/08/11 13:28:11;;;;;;;;;;;;;;;26.50;41.35;99508.31;1747577;81;20111;-76
2022/08/11 13:33:22;;;;;;;;;;;;;;;26.35;41.96;99513.23;1747551;81;20453;-76
2022/08/11 13:35:50;;;;;;;;;;;;;;;26.31;41.95;99513.48;1747671;82;20114;-76
2022/08/11 13:38:18;;;;;;;;;;;;;;;26.26;42.26;99509.39;1728173;81;20426;-77
2022/08/11 13:40:45;;;;;;;;;;;;;;;26.24;42.63;99512.40;1747026;81;20099;-76
2022/08/11 13:43:13;;;;;;;;;;;;;;;26.26;42.73;99516.20;1747798;82;21107;-77
2022/08/11 13:45:39;;;;;;;;;;;;;;;26.28;42.66;99516.20;1747557;81;20540;-75
2022/08/11 13:48:07;;;;;;;;;;;;;;;26.27;42.81;99512.41;1739953;81;20083;-77
2022/08/11 13:53:21;;;;;;;;;;;;;;;26.10;43.53;99518.59;1747764;82;20127;-76
2022/08/11 13:55:47;;;;;;;;;;;;;;;26.10;43.83;99519.97;1747579;82;21162;-76
2022/08/11 13:58:13;;;;;;;;;;;;;;;26.07;43.98;99516.44;1747559;82;20436;-76
2022/08/11 14:00:40;;;;;;;;;;;;;;;26.01;44.24;99514.78;1747615;82;20115;-75
2022/08/11 14:03:11;;;;;;;;;;;;;;;25.96;44.51;99518.86;1747558;81;20472;-76
2022/08/11 14:05:42;;;;;;;;;;;;;;;25.93;44.56;99525.67;1747670;82;20178;-76
2022/08/11 14:08:11;;;;;;;;;;;;;;;25.93;44.35;99520.76;1747848;81;21304;-76
2022/08/11 14:10:38;;;;;;;;;;;;;;;25.87;44.57;99525.91;1747786;82;20086;-76
2022/08/11 14:16:00;;;;;;;;;;;;;;;25.74;45.31;99525.34;1747508;81;20680;-76
2022/08/11 14:18:29;;;;;;;;;;;;;;;25.66;45.86;99529.94;1747574;82;20150;-76
2022/08/11 14:23:42;;;;;;;;;;;;;;;25.67;46.82;99519.88;1747680;82;20197;-76
2022/08/11 14:26:27;;;;;;;;;;;;;;;25.63;47.36;99517.39;1747463;81;20138;-75
2022/08/11 14:29:01;;;;;;;;;;;;;;;25.50;47.96;99526.05;1747544;82;20410;-75
2022/08/11 14:31:28;;;;;;;;;;;;;;;25.25;48.73;99522.66;1747551;82;20087;-75
2022/08/11 14:33:56;;;;;;;;;;;;;;;25.06;49.75;99511.92;1739890;81;21112;-75
2022/08/11 14:36:23;;;;;;;;;;;;;;;24.89;50.18;99508.56;1734594;82;20095;-76
2022/08/11 14:38:49;;;;;;;;;;;;;;;24.76;50.95;99515.78;1747580;81;20146;-76
2022/08/11 14:49:29;;;;;;;;;;;;;;;24.58;52.51;99508.86;1728689;82;20122;-75
2022/08/11 14:51:56;;;;;;;;;;;;;;;24.56;52.98;99511.00;1747461;82;20142;-75
2022/08/11 14:57:08;;;;;;;;;;;;;;;24.46;53.89;99528.59;1747620;82;20177;-76
2022/08/11 14:59:36;;;;;;;;;;;;;;;24.42;54.28;99529.67;1747735;82;21780;-76
2022/08/11 15:04:50;;;;;;;;;;;;;;;24.36;54.77;99528.52;1729136;82;20114;-76
2022/08/11 15:07:16;;;;;;;;;;;;;;;24.39;55.26;99533.44;1747283;82;20115;-76
2022/08/11 15:09:43;;;;;;;;;;;;;;;24.36;55.30;99529.34;1746479;80;20125;-76
2022/08/11 15:12:17;;;;;;;;;;;;;;;24.35;55.44;99530.41;1735790;82;21775;-76
2022/08/11 15:17:23;;;;;;;;;;;;;;;24.41;55.38;99538.06;1747760;82;20110;-76
2022/08/11 15:25:19;;;;;;;;;;;;;;;24.33;55.26;99534.45;1745428;82;21151;-76
2022/08/11 15:39:01;;;;;;;;;;;;;;;24.04;56.39;99546.10;1747680;82;21222;-76
2022/08/11 15:47:02;;;;;;;;;;;;;;;23.81;56.95;99544.50;1747710;82;20087;-76
2022/08/11 15:49:30;;;;;;;;;;;;;;;23.81;57.00;99554.54;1749414;82;20119;-76
2022/08/11 15:52:09;;;;;;;;;;;;;;;23.79;57.19;99556.70;1749470;82;21560;-76
2022/08/11 15:54:45;;;;;;;;;;;;;;;23.74;57.37;99558.00;1747983;82;20083;-76
2022/08/11 16:04:09;;;;;;;;;;;;;;;23.67;57.76;99564.96;1747722;81;20176;-76
2022/08/11 16:05:12;;;;;;;;;;;;;;;23.55;58.64;99577.86;1747942;82;21205;-76
2022/08/11 16:07:38;;;;;;;;;;;;;;;23.50;58.95;99576.44;1748442;82;20267;-76
2022/08/11 16:10:08;;;;;;;;;;;;;;;23.45;59.36;99574.19;1748505;82;20093;-76
2022/08/11 16:12:38;;;;;;;;;;;;;;;23.44;59.63;99573.92;1747572;81;20095;-76
2022/08/11 16:17:56;;;;;;;;;;;;;;;23.32;60.68;99580.77;1747704;82;21188;-76
2022/08/11 16:20:24;;;;;;;;;;;;;;;23.23;61.35;99580.93;1752381;82;20146;-76
2022/08/11 16:22:51;;;;;;;;;;;;;;;23.16;61.69;99585.16;1754590;80;20158;-75
2022/08/11 16:25:21;;;;;;;;;;;;;;;23.08;62.25;99581.52;1754574;80;20087;-71
2022/08/11 16:27:54;;;;;;;;;;;;;;;23.03;62.98;99581.44;1754603;82;20082;-74
2022/08/11 16:30:21;;;;;;;;;;;;;;;22.96;64.30;99588.10;1754641;80;21125;-76
2022/08/11 16:32:51;;;;;;;;;;;;;;;22.80;65.65;99589.75;1755009;82;20095;-74
2022/08/11 16:40:51;;;;;;;;;;;;;;;22.28;69.84;99599.11;1740352;80;20439;-76
2022/08/11 16:48:48;;;;;;;;;;;;;;;21.82;73.29;99609.01;1745348;80;20520;-70
2022/08/11 16:51:14;;;;;;;;;;;;;;;21.68;74.57;99610.88;1753956;80;20143;-75
2022/08/11 16:53:44;;;;;;;;;;;;;;;21.52;75.46;99608.38;1769128;80;20443;-71
2022/08/11 16:56:15;;;;;;;;;;;;;;;21.42;76.13;99614.93;1754091;80;21747;-74
2022/08/11 17:01:24;;;;;;;;;;;;;;;21.24;77.67;99625.36;1730399;82;20462;-75
2022/08/11 17:15:00;;;;;;;;;;;;;;;20.93;79.77;99612.94;1754126;80;20131;-76
2022/08/11 17:17:33;;;;;;;;;;;;;;;20.86;80.09;99608.18;1754099;82;20126;-76
2022/08/11 17:20:02;;;;;;;;;;;;;;;20.79;80.45;99602.59;1751727;81;21017;-77
2022/08/11 17:25:14;;;;;;;;;;;;;;;20.77;81.03;99608.25;1735213;80;20440;-75
2022/08/11 17:27:40;;;;;;;;;;;;;;;20.81;80.99;99615.34;1745915;80;20144;-77
2022/08/11 17:30:07;;;;;;;;;;;;;;;20.80;80.99;99614.55;1736199;80;20145;-76
2022/08/11 17:35:31;;;;;;;;;;;;;;;20.81;81.14;99595.06;1748411;82;21264;-77
2022/08/11 17:37:50;;;;;;;;;;;;;;;20.80;81.32;99596.97;1723818;82;20490;-72
2022/08/11 17:40:23;;;;;;;;;;;;;;;20.80;81.12;99599.67;1742942;82;20161;-77
2022/08/11 17:48:26;;;;;;;;;;;;;;;20.69;80.73;99614.51;1743296;80;21268;-74
2022/08/11 17:50:59;;;;;;;;;;;;;;;20.65;80.55;99626.86;1749699;82;20126;-76
2022/08/11 18:01:41;;;;;;;;;;;;;;;20.57;80.02;99618.52;1734742;82;21082;-77
2022/08/11 18:04:09;;;;;;;;;;;;;;;20.56;80.30;99616.89;1735221;80;20187;-76
2022/08/11 18:06:36;;;;;;;;;;;;;;;20.57;80.64;99611.77;1736202;80;20106;-78
